Houston, Texas
Traffic Map
Current Weather Conditions
Houston, Texas
Scattered Clouds
Scattered Clouds
87°
Feels Like: 94°
Wind Chill: 87° Ceiling: Unl
Heat Index: 94° Visibility: 10mi
Dew Point: 73° Wind: 9mph
Humidity: 63% Direction: 170° (S)
Pressure: 30in Gusts: 0mph
Raw Report DataKIAH 060053Z 17008KT 10SM FEW041 SCT250 31/23 A3000 RMK AO2 SLP157 T03060228
Traffic Incident Summary
Active as of:
Severity:
Category:
InformationThere was an issue retrieving the traffic information for this location. Please try a different location or try again shortly.
Advertisements
Track Severe Weather on mobile